sensor_id;sensor_type;location;lat;lon;timestamp;P1;durP1;ratioP1;P2;durP2;ratioP2
5157;SDS011;2598;52.364;9.772;2024-02-14T00:01:34;6.03;;;1.13;;
5157;SDS011;2598;52.364;9.772;2024-02-14T00:04:02;4.10;;;1.17;;
5157;SDS011;2598;52.364;9.772;2024-02-14T00:06:28;4.77;;;1.30;;
5157;SDS011;2598;52.364;9.772;2024-02-14T00:08:54;3.40;;;1.00;;
5157;SDS011;2598;52.364;9.772;2024-02-14T00:11:20;4.00;;;1.60;;
5157;SDS011;2598;52.364;9.772;2024-02-14T00:13:46;4.43;;;1.10;;
5157;SDS011;2598;52.364;9.772;2024-02-14T00:16:12;9.73;;;1.43;;
5157;SDS011;2598;52.364;9.772;2024-02-14T00:18:38;3.30;;;1.10;;
5157;SDS011;2598;52.364;9.772;2024-02-14T00:21:04;4.73;;;1.10;;
5157;SDS011;2598;52.364;9.772;2024-02-14T00:23:30;5.67;;;1.30;;
5157;SDS011;2598;52.364;9.772;2024-02-14T00:25:56;4.23;;;1.77;;
5157;SDS011;2598;52.364;9.772;2024-02-14T00:28:22;3.77;;;1.50;;
5157;SDS011;2598;52.364;9.772;2024-02-14T00:30:51;5.57;;;1.70;;
5157;SDS011;2598;52.364;9.772;2024-02-14T00:33:17;4.30;;;1.10;;
5157;SDS011;2598;52.364;9.772;2024-02-14T00:35:45;3.63;;;1.17;;
5157;SDS011;2598;52.364;9.772;2024-02-14T00:38:11;8.63;;;1.60;;
5157;SDS011;2598;52.364;9.772;2024-02-14T00:40:37;4.80;;;1.30;;
5157;SDS011;2598;52.364;9.772;2024-02-14T00:43:03;4.67;;;1.57;;
5157;SDS011;2598;52.364;9.772;2024-02-14T00:45:29;4.07;;;0.90;;
5157;SDS011;2598;52.364;9.772;2024-02-14T00:47:55;4.90;;;1.23;;
5157;SDS011;2598;52.364;9.772;2024-02-14T00:50:21;3.90;;;1.70;;
5157;SDS011;2598;52.364;9.772;2024-02-14T00:52:47;5.70;;;1.40;;
5157;SDS011;2598;52.364;9.772;2024-02-14T00:55:13;4.60;;;1.13;;
5157;SDS011;2598;52.364;9.772;2024-02-14T00:57:39;7.40;;;1.93;;
5157;SDS011;2598;52.364;9.772;2024-02-14T01:00:06;4.47;;;1.50;;
5157;SDS011;2598;52.364;9.772;2024-02-14T01:02:32;3.73;;;1.30;;
5157;SDS011;2598;52.364;9.772;2024-02-14T01:04:58;3.77;;;1.20;;
5157;SDS011;2598;52.364;9.772;2024-02-14T01:07:24;6.40;;;1.63;;
5157;SDS011;2598;52.364;9.772;2024-02-14T01:09:50;6.93;;;1.87;;
5157;SDS011;2598;52.364;9.772;2024-02-14T01:12:16;4.90;;;1.20;;
5157;SDS011;2598;52.364;9.772;2024-02-14T01:14:42;4.10;;;1.30;;
5157;SDS011;2598;52.364;9.772;2024-02-14T01:17:08;4.63;;;1.30;;
5157;SDS011;2598;52.364;9.772;2024-02-14T01:19:34;3.40;;;1.03;;
5157;SDS011;2598;52.364;9.772;2024-02-14T01:22:00;4.73;;;1.40;;
5157;SDS011;2598;52.364;9.772;2024-02-14T01:24:27;4.93;;;1.60;;
5157;SDS011;2598;52.364;9.772;2024-02-14T01:26:55;6.60;;;1.30;;
5157;SDS011;2598;52.364;9.772;2024-02-14T01:29:21;5.43;;;1.73;;
5157;SDS011;2598;52.364;9.772;2024-02-14T01:31:48;4.13;;;1.47;;
5157;SDS011;2598;52.364;9.772;2024-02-14T01:34:15;4.53;;;1.30;;
5157;SDS011;2598;52.364;9.772;2024-02-14T01:36:41;5.80;;;1.40;;
5157;SDS011;2598;52.364;9.772;2024-02-14T01:39:07;11.40;;;1.63;;
5157;SDS011;2598;52.364;9.772;2024-02-14T01:41:36;4.33;;;1.30;;
5157;SDS011;2598;52.364;9.772;2024-02-14T01:44:02;4.80;;;1.30;;
5157;SDS011;2598;52.364;9.772;2024-02-14T01:46:28;6.27;;;1.63;;
5157;SDS011;2598;52.364;9.772;2024-02-14T01:48:55;4.10;;;1.03;;
5157;SDS011;2598;52.364;9.772;2024-02-14T01:51:22;4.57;;;1.10;;
5157;SDS011;2598;52.364;9.772;2024-02-14T01:53:49;8.60;;;1.47;;
5157;SDS011;2598;52.364;9.772;2024-02-14T01:56:15;7.47;;;1.60;;
5157;SDS011;2598;52.364;9.772;2024-02-14T01:58:42;7.10;;;1.63;;
5157;SDS011;2598;52.364;9.772;2024-02-14T02:01:08;5.10;;;1.40;;
5157;SDS011;2598;52.364;9.772;2024-02-14T02:03:35;4.90;;;1.73;;
5157;SDS011;2598;52.364;9.772;2024-02-14T02:06:02;6.03;;;1.77;;
5157;SDS011;2598;52.364;9.772;2024-02-14T02:08:29;4.77;;;1.27;;
5157;SDS011;2598;52.364;9.772;2024-02-14T02:10:55;3.50;;;1.07;;
5157;SDS011;2598;52.364;9.772;2024-02-14T02:13:21;4.33;;;1.50;;
5157;SDS011;2598;52.364;9.772;2024-02-14T02:15:47;11.33;;;1.40;;
5157;SDS011;2598;52.364;9.772;2024-02-14T02:18:13;7.47;;;1.27;;
5157;SDS011;2598;52.364;9.772;2024-02-14T02:20:40;6.63;;;2.30;;
5157;SDS011;2598;52.364;9.772;2024-02-14T02:23:08;6.27;;;1.50;;
5157;SDS011;2598;52.364;9.772;2024-02-14T02:25:34;4.10;;;1.10;;
5157;SDS011;2598;52.364;9.772;2024-02-14T02:28:00;6.20;;;2.53;;
5157;SDS011;2598;52.364;9.772;2024-02-14T02:30:26;6.77;;;1.80;;
5157;SDS011;2598;52.364;9.772;2024-02-14T02:32:52;5.97;;;2.07;;
5157;SDS011;2598;52.364;9.772;2024-02-14T02:35:18;8.77;;;2.23;;
5157;SDS011;2598;52.364;9.772;2024-02-14T02:37:45;5.67;;;1.97;;
5157;SDS011;2598;52.364;9.772;2024-02-14T02:40:13;6.33;;;1.70;;
5157;SDS011;2598;52.364;9.772;2024-02-14T02:42:39;5.17;;;1.90;;
5157;SDS011;2598;52.364;9.772;2024-02-14T02:45:05;7.00;;;1.73;;
5157;SDS011;2598;52.364;9.772;2024-02-14T02:47:32;6.03;;;2.10;;
5157;SDS011;2598;52.364;9.772;2024-02-14T02:49:58;6.50;;;2.13;;
5157;SDS011;2598;52.364;9.772;2024-02-14T02:52:26;7.67;;;1.87;;
5157;SDS011;2598;52.364;9.772;2024-02-14T02:54:52;6.43;;;1.80;;
5157;SDS011;2598;52.364;9.772;2024-02-14T02:57:19;8.50;;;2.67;;
5157;SDS011;2598;52.364;9.772;2024-02-14T02:59:45;4.77;;;2.33;;
5157;SDS011;2598;52.364;9.772;2024-02-14T03:02:13;4.63;;;1.80;;
5157;SDS011;2598;52.364;9.772;2024-02-14T03:04:39;6.13;;;1.90;;
5157;SDS011;2598;52.364;9.772;2024-02-14T03:07:05;5.47;;;2.13;;
5157;SDS011;2598;52.364;9.772;2024-02-14T03:09:34;6.50;;;2.00;;
5157;SDS011;2598;52.364;9.772;2024-02-14T03:12:01;4.83;;;2.17;;
5157;SDS011;2598;52.364;9.772;2024-02-14T03:14:28;7.80;;;2.00;;
5157;SDS011;2598;52.364;9.772;2024-02-14T03:16:57;5.30;;;2.00;;
5157;SDS011;2598;52.364;9.772;2024-02-14T03:19:24;4.83;;;1.90;;
5157;SDS011;2598;52.364;9.772;2024-02-14T03:21:51;5.30;;;2.37;;
5157;SDS011;2598;52.364;9.772;2024-02-14T03:24:17;5.43;;;2.27;;
5157;SDS011;2598;52.364;9.772;2024-02-14T03:26:44;9.30;;;2.90;;
5157;SDS011;2598;52.364;9.772;2024-02-14T03:29:10;5.53;;;2.03;;
5157;SDS011;2598;52.364;9.772;2024-02-14T03:31:36;6.53;;;2.30;;
5157;SDS011;2598;52.364;9.772;2024-02-14T03:34:02;5.20;;;1.80;;
5157;SDS011;2598;52.364;9.772;2024-02-14T03:36:28;4.63;;;2.00;;
5157;SDS011;2598;52.364;9.772;2024-02-14T03:38:56;4.63;;;1.90;;
5157;SDS011;2598;52.364;9.772;2024-02-14T03:41:22;5.77;;;2.03;;
5157;SDS011;2598;52.364;9.772;2024-02-14T03:43:48;7.63;;;2.70;;
5157;SDS011;2598;52.364;9.772;2024-02-14T03:46:15;4.20;;;2.00;;
5157;SDS011;2598;52.364;9.772;2024-02-14T03:48:45;5.40;;;1.93;;
5157;SDS011;2598;52.364;9.772;2024-02-14T03:51:12;9.43;;;2.17;;
5157;SDS011;2598;52.364;9.772;2024-02-14T03:53:38;5.00;;;1.63;;
5157;SDS011;2598;52.364;9.772;2024-02-14T03:56:04;6.93;;;2.10;;
5157;SDS011;2598;52.364;9.772;2024-02-14T03:58:32;5.93;;;2.07;;
5157;SDS011;2598;52.364;9.772;2024-02-14T04:01:02;7.33;;;2.40;;
5157;SDS011;2598;52.364;9.772;2024-02-14T04:03:28;7.13;;;1.80;;
5157;SDS011;2598;52.364;9.772;2024-02-14T04:05:54;12.40;;;2.20;;
5157;SDS011;2598;52.364;9.772;2024-02-14T04:08:20;4.20;;;1.93;;
5157;SDS011;2598;52.364;9.772;2024-02-14T04:10:47;6.30;;;2.10;;
5157;SDS011;2598;52.364;9.772;2024-02-14T04:13:15;5.83;;;2.00;;
5157;SDS011;2598;52.364;9.772;2024-02-14T04:15:41;6.47;;;1.70;;
5157;SDS011;2598;52.364;9.772;2024-02-14T04:18:10;5.00;;;1.83;;
5157;SDS011;2598;52.364;9.772;2024-02-14T04:20:36;5.80;;;1.87;;
5157;SDS011;2598;52.364;9.772;2024-02-14T04:23:02;5.17;;;1.83;;
5157;SDS011;2598;52.364;9.772;2024-02-14T04:25:31;7.07;;;2.20;;
5157;SDS011;2598;52.364;9.772;2024-02-14T04:27:58;6.60;;;2.20;;
5157;SDS011;2598;52.364;9.772;2024-02-14T04:30:24;6.03;;;1.97;;
5157;SDS011;2598;52.364;9.772;2024-02-14T04:32:50;5.07;;;1.63;;
5157;SDS011;2598;52.364;9.772;2024-02-14T04:35:19;6.47;;;1.87;;
5157;SDS011;2598;52.364;9.772;2024-02-14T04:37:46;5.10;;;2.00;;
5157;SDS011;2598;52.364;9.772;2024-02-14T04:40:14;6.10;;;1.80;;
5157;SDS011;2598;52.364;9.772;2024-02-14T04:42:40;6.20;;;1.70;;
5157;SDS011;2598;52.364;9.772;2024-02-14T04:45:07;7.90;;;2.30;;
5157;SDS011;2598;52.364;9.772;2024-02-14T04:47:33;7.17;;;2.20;;
5157;SDS011;2598;52.364;9.772;2024-02-14T04:49:59;4.53;;;1.50;;
5157;SDS011;2598;52.364;9.772;2024-02-14T04:52:26;5.53;;;1.93;;
5157;SDS011;2598;52.364;9.772;2024-02-14T04:54:52;5.27;;;1.70;;
5157;SDS011;2598;52.364;9.772;2024-02-14T04:57:18;6.37;;;2.03;;
5157;SDS011;2598;52.364;9.772;2024-02-14T04:59:45;5.60;;;2.40;;
5157;SDS011;2598;52.364;9.772;2024-02-14T05:02:11;11.67;;;2.23;;
5157;SDS011;2598;52.364;9.772;2024-02-14T05:04:37;9.70;;;2.30;;
5157;SDS011;2598;52.364;9.772;2024-02-14T05:07:04;5.20;;;1.80;;
5157;SDS011;2598;52.364;9.772;2024-02-14T05:09:30;13.23;;;2.10;;
5157;SDS011;2598;52.364;9.772;2024-02-14T05:11:56;5.23;;;2.23;;
5157;SDS011;2598;52.364;9.772;2024-02-14T05:14:22;5.33;;;2.30;;
5157;SDS011;2598;52.364;9.772;2024-02-14T05:16:48;4.93;;;1.70;;
5157;SDS011;2598;52.364;9.772;2024-02-14T05:19:14;13.97;;;2.50;;
5157;SDS011;2598;52.364;9.772;2024-02-14T05:21:40;7.17;;;2.40;;
5157;SDS011;2598;52.364;9.772;2024-02-14T05:24:06;6.63;;;2.00;;
5157;SDS011;2598;52.364;9.772;2024-02-14T05:26:33;5.50;;;1.77;;
5157;SDS011;2598;52.364;9.772;2024-02-14T05:28:59;7.43;;;2.67;;
5157;SDS011;2598;52.364;9.772;2024-02-14T05:31:28;7.73;;;1.80;;
5157;SDS011;2598;52.364;9.772;2024-02-14T05:34:07;6.67;;;2.23;;
5157;SDS011;2598;52.364;9.772;2024-02-14T05:36:34;7.77;;;1.77;;
5157;SDS011;2598;52.364;9.772;2024-02-14T05:39:01;8.73;;;2.07;;
5157;SDS011;2598;52.364;9.772;2024-02-14T05:41:27;8.83;;;2.03;;
5157;SDS011;2598;52.364;9.772;2024-02-14T05:43:53;8.93;;;2.20;;
5157;SDS011;2598;52.364;9.772;2024-02-14T05:46:19;7.17;;;2.17;;
5157;SDS011;2598;52.364;9.772;2024-02-14T05:48:46;6.43;;;1.80;;
5157;SDS011;2598;52.364;9.772;2024-02-14T05:51:13;7.27;;;2.37;;
5157;SDS011;2598;52.364;9.772;2024-02-14T05:53:39;4.70;;;1.93;;
5157;SDS011;2598;52.364;9.772;2024-02-14T05:56:05;4.00;;;1.60;;
5157;SDS011;2598;52.364;9.772;2024-02-14T05:58:31;5.40;;;2.00;;
5157;SDS011;2598;52.364;9.772;2024-02-14T06:00:57;7.03;;;2.00;;
5157;SDS011;2598;52.364;9.772;2024-02-14T06:03:23;4.70;;;1.80;;
5157;SDS011;2598;52.364;9.772;2024-02-14T06:05:49;6.63;;;1.90;;
5157;SDS011;2598;52.364;9.772;2024-02-14T06:08:15;6.43;;;1.70;;
5157;SDS011;2598;52.364;9.772;2024-02-14T06:10:41;3.87;;;1.77;;
5157;SDS011;2598;52.364;9.772;2024-02-14T06:13:06;4.60;;;2.00;;
5157;SDS011;2598;52.364;9.772;2024-02-14T06:15:33;6.53;;;1.83;;
5157;SDS011;2598;52.364;9.772;2024-02-14T06:17:59;4.47;;;1.80;;
5157;SDS011;2598;52.364;9.772;2024-02-14T06:20:25;7.30;;;1.87;;
5157;SDS011;2598;52.364;9.772;2024-02-14T06:22:51;8.33;;;1.90;;
5157;SDS011;2598;52.364;9.772;2024-02-14T06:25:17;4.13;;;1.60;;
5157;SDS011;2598;52.364;9.772;2024-02-14T06:27:43;7.80;;;1.90;;
5157;SDS011;2598;52.364;9.772;2024-02-14T06:30:09;5.30;;;1.70;;
5157;SDS011;2598;52.364;9.772;2024-02-14T06:32:35;5.23;;;1.90;;
5157;SDS011;2598;52.364;9.772;2024-02-14T06:35:01;4.73;;;1.73;;
5157;SDS011;2598;52.364;9.772;2024-02-14T06:37:27;8.57;;;2.07;;
5157;SDS011;2598;52.364;9.772;2024-02-14T06:39:53;4.93;;;1.87;;
5157;SDS011;2598;52.364;9.772;2024-02-14T06:42:19;5.50;;;1.97;;
5157;SDS011;2598;52.364;9.772;2024-02-14T06:44:45;4.37;;;1.67;;
5157;SDS011;2598;52.364;9.772;2024-02-14T06:47:11;3.80;;;1.60;;
5157;SDS011;2598;52.364;9.772;2024-02-14T06:49:37;4.27;;;1.77;;
5157;SDS011;2598;52.364;9.772;2024-02-14T06:52:03;8.10;;;1.70;;
5157;SDS011;2598;52.364;9.772;2024-02-14T06:54:29;4.63;;;1.77;;
5157;SDS011;2598;52.364;9.772;2024-02-14T06:56:55;5.33;;;1.70;;
5157;SDS011;2598;52.364;9.772;2024-02-14T06:59:21;4.73;;;1.70;;
5157;SDS011;2598;52.364;9.772;2024-02-14T07:01:47;5.93;;;1.57;;
5157;SDS011;2598;52.364;9.772;2024-02-14T07:04:13;4.90;;;1.90;;
5157;SDS011;2598;52.364;9.772;2024-02-14T07:06:39;9.10;;;1.77;;
5157;SDS011;2598;52.364;9.772;2024-02-14T07:09:05;4.30;;;1.50;;
5157;SDS011;2598;52.364;9.772;2024-02-14T07:11:31;4.43;;;1.63;;
5157;SDS011;2598;52.364;9.772;2024-02-14T07:13:57;5.60;;;1.33;;
5157;SDS011;2598;52.364;9.772;2024-02-14T07:16:23;6.30;;;1.80;;
5157;SDS011;2598;52.364;9.772;2024-02-14T07:18:49;3.90;;;1.53;;
5157;SDS011;2598;52.364;9.772;2024-02-14T07:21:16;4.97;;;1.40;;
5157;SDS011;2598;52.364;9.772;2024-02-14T07:23:42;5.53;;;1.30;;
5157;SDS011;2598;52.364;9.772;2024-02-14T07:26:08;4.33;;;1.60;;
5157;SDS011;2598;52.364;9.772;2024-02-14T07:28:34;4.57;;;1.47;;
5157;SDS011;2598;52.364;9.772;2024-02-14T07:31:00;3.60;;;1.30;;
5157;SDS011;2598;52.364;9.772;2024-02-14T07:33:26;3.40;;;1.10;;
5157;SDS011;2598;52.364;9.772;2024-02-14T07:35:52;7.20;;;1.67;;
5157;SDS011;2598;52.364;9.772;2024-02-14T07:38:18;4.60;;;1.50;;
5157;SDS011;2598;52.364;9.772;2024-02-14T07:40:44;3.90;;;1.27;;
5157;SDS011;2598;52.364;9.772;2024-02-14T07:43:10;4.67;;;1.40;;
5157;SDS011;2598;52.364;9.772;2024-02-14T07:45:36;5.17;;;1.10;;
5157;SDS011;2598;52.364;9.772;2024-02-14T07:48:02;6.43;;;1.40;;
5157;SDS011;2598;52.364;9.772;2024-02-14T07:50:28;3.40;;;1.00;;
5157;SDS011;2598;52.364;9.772;2024-02-14T07:52:54;4.33;;;1.20;;
5157;SDS011;2598;52.364;9.772;2024-02-14T07:55:20;6.43;;;1.50;;
5157;SDS011;2598;52.364;9.772;2024-02-14T07:57:46;3.90;;;1.27;;
5157;SDS011;2598;52.364;9.772;2024-02-14T08:00:12;6.00;;;1.80;;
5157;SDS011;2598;52.364;9.772;2024-02-14T08:02:43;3.57;;;1.13;;
5157;SDS011;2598;52.364;9.772;2024-02-14T08:05:09;3.63;;;1.27;;
5157;SDS011;2598;52.364;9.772;2024-02-14T08:07:35;4.10;;;1.30;;
5157;SDS011;2598;52.364;9.772;2024-02-14T08:10:01;5.60;;;1.20;;
5157;SDS011;2598;52.364;9.772;2024-02-14T08:12:27;4.73;;;1.03;;
5157;SDS011;2598;52.364;9.772;2024-02-14T08:14:53;7.70;;;1.33;;
5157;SDS011;2598;52.364;9.772;2024-02-14T08:17:19;4.53;;;1.30;;
5157;SDS011;2598;52.364;9.772;2024-02-14T08:19:45;3.20;;;0.90;;
5157;SDS011;2598;52.364;9.772;2024-02-14T08:22:11;3.30;;;1.00;;
5157;SDS011;2598;52.364;9.772;2024-02-14T08:24:37;3.73;;;1.10;;
5157;SDS011;2598;52.364;9.772;2024-02-14T08:27:03;3.67;;;1.10;;
5157;SDS011;2598;52.364;9.772;2024-02-14T08:29:32;3.20;;;1.00;;
5157;SDS011;2598;52.364;9.772;2024-02-14T08:31:58;4.87;;;1.07;;
5157;SDS011;2598;52.364;9.772;2024-02-14T08:34:24;3.60;;;0.90;;
5157;SDS011;2598;52.364;9.772;2024-02-14T08:36:50;3.50;;;1.17;;
5157;SDS011;2598;52.364;9.772;2024-02-14T08:39:16;3.00;;;0.70;;
5157;SDS011;2598;52.364;9.772;2024-02-14T08:41:43;3.93;;;1.07;;
5157;SDS011;2598;52.364;9.772;2024-02-14T08:44:11;7.33;;;0.80;;
5157;SDS011;2598;52.364;9.772;2024-02-14T08:46:37;3.40;;;0.83;;
5157;SDS011;2598;52.364;9.772;2024-02-14T08:49:04;3.20;;;0.90;;
5157;SDS011;2598;52.364;9.772;2024-02-14T08:51:34;3.55;;;1.00;;
5157;SDS011;2598;52.364;9.772;2024-02-14T08:53:59;4.50;;;1.10;;
5157;SDS011;2598;52.364;9.772;2024-02-14T08:56:28;4.00;;;1.00;;
5157;SDS011;2598;52.364;9.772;2024-02-14T08:58:54;3.10;;;0.77;;
5157;SDS011;2598;52.364;9.772;2024-02-14T09:01:20;3.60;;;1.00;;
5157;SDS011;2598;52.364;9.772;2024-02-14T09:03:46;3.10;;;0.83;;
5157;SDS011;2598;52.364;9.772;2024-02-14T09:06:15;3.77;;;1.10;;
5157;SDS011;2598;52.364;9.772;2024-02-14T09:08:45;4.00;;;1.03;;
5157;SDS011;2598;52.364;9.772;2024-02-14T09:11:11;3.33;;;1.10;;
5157;SDS011;2598;52.364;9.772;2024-02-14T09:13:37;5.20;;;1.13;;
5157;SDS011;2598;52.364;9.772;2024-02-14T09:16:05;3.80;;;1.17;;
5157;SDS011;2598;52.364;9.772;2024-02-14T09:18:31;4.30;;;1.57;;
5157;SDS011;2598;52.364;9.772;2024-02-14T09:20:57;5.47;;;1.60;;
5157;SDS011;2598;52.364;9.772;2024-02-14T09:23:23;3.90;;;1.60;;
5157;SDS011;2598;52.364;9.772;2024-02-14T09:25:49;3.77;;;1.50;;
5157;SDS011;2598;52.364;9.772;2024-02-14T09:28:16;3.90;;;1.90;;
5157;SDS011;2598;52.364;9.772;2024-02-14T09:30:42;3.90;;;1.77;;
5157;SDS011;2598;52.364;9.772;2024-02-14T09:33:08;3.50;;;1.37;;
5157;SDS011;2598;52.364;9.772;2024-02-14T09:35:34;4.20;;;1.80;;
5157;SDS011;2598;52.364;9.772;2024-02-14T09:38:02;4.27;;;2.00;;
5157;SDS011;2598;52.364;9.772;2024-02-14T09:40:28;4.50;;;1.90;;
5157;SDS011;2598;52.364;9.772;2024-02-14T09:42:55;3.70;;;1.80;;
5157;SDS011;2598;52.364;9.772;2024-02-14T09:45:26;5.03;;;2.20;;
5157;SDS011;2598;52.364;9.772;2024-02-14T09:47:52;4.43;;;2.03;;
5157;SDS011;2598;52.364;9.772;2024-02-14T09:50:19;4.00;;;1.97;;
5157;SDS011;2598;52.364;9.772;2024-02-14T09:52:46;4.10;;;2.00;;
5157;SDS011;2598;52.364;9.772;2024-02-14T09:55:13;4.07;;;1.90;;
5157;SDS011;2598;52.364;9.772;2024-02-14T09:57:40;6.40;;;2.10;;
5157;SDS011;2598;52.364;9.772;2024-02-14T10:00:07;6.70;;;2.47;;
5157;SDS011;2598;52.364;9.772;2024-02-14T10:02:35;5.00;;;2.50;;
5157;SDS011;2598;52.364;9.772;2024-02-14T10:05:01;3.93;;;2.00;;
5157;SDS011;2598;52.364;9.772;2024-02-14T10:07:27;4.67;;;2.27;;
5157;SDS011;2598;52.364;9.772;2024-02-14T10:09:53;6.53;;;2.27;;
5157;SDS011;2598;52.364;9.772;2024-02-14T10:12:19;5.23;;;2.40;;
5157;SDS011;2598;52.364;9.772;2024-02-14T10:14:45;4.13;;;2.23;;
5157;SDS011;2598;52.364;9.772;2024-02-14T10:17:20;4.70;;;2.23;;
5157;SDS011;2598;52.364;9.772;2024-02-14T10:19:56;6.80;;;2.10;;
5157;SDS011;2598;52.364;9.772;2024-02-14T10:22:22;4.57;;;2.30;;
5157;SDS011;2598;52.364;9.772;2024-02-14T10:24:48;4.23;;;2.33;;
5157;SDS011;2598;52.364;9.772;2024-02-14T10:27:15;4.60;;;2.17;;
5157;SDS011;2598;52.364;9.772;2024-02-14T10:29:41;5.03;;;2.40;;
5157;SDS011;2598;52.364;9.772;2024-02-14T10:32:08;4.30;;;2.20;;
5157;SDS011;2598;52.364;9.772;2024-02-14T10:34:34;7.57;;;2.80;;
5157;SDS011;2598;52.364;9.772;2024-02-14T10:37:01;5.30;;;2.20;;
5157;SDS011;2598;52.364;9.772;2024-02-14T10:39:27;4.20;;;2.17;;
5157;SDS011;2598;52.364;9.772;2024-02-14T10:41:55;3.90;;;2.07;;
5157;SDS011;2598;52.364;9.772;2024-02-14T10:44:21;11.37;;;2.10;;
5157;SDS011;2598;52.364;9.772;2024-02-14T10:46:47;3.97;;;1.93;;
5157;SDS011;2598;52.364;9.772;2024-02-14T10:49:15;4.90;;;1.83;;
5157;SDS011;2598;52.364;9.772;2024-02-14T10:51:41;4.13;;;1.70;;
5157;SDS011;2598;52.364;9.772;2024-02-14T10:54:10;4.40;;;1.60;;
5157;SDS011;2598;52.364;9.772;2024-02-14T10:56:41;6.90;;;1.87;;
5157;SDS011;2598;52.364;9.772;2024-02-14T10:59:11;3.90;;;1.80;;
5157;SDS011;2598;52.364;9.772;2024-02-14T11:01:38;5.13;;;1.77;;
5157;SDS011;2598;52.364;9.772;2024-02-14T11:04:05;5.23;;;1.90;;
5157;SDS011;2598;52.364;9.772;2024-02-14T11:06:31;3.90;;;1.80;;
5157;SDS011;2598;52.364;9.772;2024-02-14T11:09:01;4.40;;;1.90;;
5157;SDS011;2598;52.364;9.772;2024-02-14T11:11:32;4.90;;;1.70;;
5157;SDS011;2598;52.364;9.772;2024-02-14T11:13:58;3.70;;;1.57;;
5157;SDS011;2598;52.364;9.772;2024-02-14T11:16:25;3.90;;;2.00;;
5157;SDS011;2598;52.364;9.772;2024-02-14T11:19:07;7.90;;;2.00;;
5157;SDS011;2598;52.364;9.772;2024-02-14T11:21:52;3.90;;;1.40;;
5157;SDS011;2598;52.364;9.772;2024-02-14T11:24:18;4.20;;;1.83;;
5157;SDS011;2598;52.364;9.772;2024-02-14T11:26:47;4.10;;;1.97;;
5157;SDS011;2598;52.364;9.772;2024-02-14T11:29:17;4.80;;;1.80;;
5157;SDS011;2598;52.364;9.772;2024-02-14T11:31:47;4.00;;;2.10;;
5157;SDS011;2598;52.364;9.772;2024-02-14T11:34:13;4.30;;;1.77;;
5157;SDS011;2598;52.364;9.772;2024-02-14T11:36:43;6.30;;;1.83;;
5157;SDS011;2598;52.364;9.772;2024-02-14T11:39:10;4.13;;;1.80;;
5157;SDS011;2598;52.364;9.772;2024-02-14T11:41:39;4.20;;;2.10;;
5157;SDS011;2598;52.364;9.772;2024-02-14T11:44:07;5.30;;;2.10;;
5157;SDS011;2598;52.364;9.772;2024-02-14T11:46:34;4.03;;;2.03;;
5157;SDS011;2598;52.364;9.772;2024-02-14T11:49:03;3.47;;;1.40;;
5157;SDS011;2598;52.364;9.772;2024-02-14T11:51:30;3.90;;;2.13;;
5157;SDS011;2598;52.364;9.772;2024-02-14T11:53:59;3.90;;;1.90;;
5157;SDS011;2598;52.364;9.772;2024-02-14T11:56:38;5.43;;;1.90;;
5157;SDS011;2598;52.364;9.772;2024-02-14T11:59:06;5.30;;;1.90;;
5157;SDS011;2598;52.364;9.772;2024-02-14T12:01:35;4.60;;;2.00;;
5157;SDS011;2598;52.364;9.772;2024-02-14T12:04:02;4.37;;;2.30;;
5157;SDS011;2598;52.364;9.772;2024-02-14T12:06:29;4.73;;;2.03;;
5157;SDS011;2598;52.364;9.772;2024-02-14T12:09:02;4.43;;;2.20;;
5157;SDS011;2598;52.364;9.772;2024-02-14T12:11:34;5.20;;;2.40;;
5157;SDS011;2598;52.364;9.772;2024-02-14T12:14:05;6.40;;;2.77;;
5157;SDS011;2598;52.364;9.772;2024-02-14T12:16:31;7.43;;;3.00;;
5157;SDS011;2598;52.364;9.772;2024-02-14T12:19:08;5.00;;;2.57;;
5157;SDS011;2598;52.364;9.772;2024-02-14T12:21:38;7.00;;;2.53;;
5157;SDS011;2598;52.364;9.772;2024-02-14T12:24:07;4.50;;;2.60;;
5157;SDS011;2598;52.364;9.772;2024-02-14T12:26:37;5.27;;;2.47;;
5157;SDS011;2598;52.364;9.772;2024-02-14T12:29:04;7.03;;;2.70;;
5157;SDS011;2598;52.364;9.772;2024-02-14T12:31:30;4.67;;;2.80;;
5157;SDS011;2598;52.364;9.772;2024-02-14T12:33:56;5.30;;;2.57;;
5157;SDS011;2598;52.364;9.772;2024-02-14T12:36:25;4.80;;;2.50;;
5157;SDS011;2598;52.364;9.772;2024-02-14T12:38:51;5.03;;;2.83;;
5157;SDS011;2598;52.364;9.772;2024-02-14T12:41:18;4.40;;;2.27;;
5157;SDS011;2598;52.364;9.772;2024-02-14T12:43:44;6.37;;;3.10;;
5157;SDS011;2598;52.364;9.772;2024-02-14T12:46:10;6.73;;;3.40;;
5157;SDS011;2598;52.364;9.772;2024-02-14T12:48:36;5.53;;;3.10;;
5157;SDS011;2598;52.364;9.772;2024-02-14T12:51:02;5.20;;;2.90;;
5157;SDS011;2598;52.364;9.772;2024-02-14T12:53:28;5.80;;;2.70;;
5157;SDS011;2598;52.364;9.772;2024-02-14T12:55:54;4.40;;;2.70;;
5157;SDS011;2598;52.364;9.772;2024-02-14T12:58:20;5.87;;;2.60;;
5157;SDS011;2598;52.364;9.772;2024-02-14T13:00:46;6.03;;;3.47;;
5157;SDS011;2598;52.364;9.772;2024-02-14T13:03:12;6.07;;;3.60;;
5157;SDS011;2598;52.364;9.772;2024-02-14T13:05:38;5.60;;;3.30;;
5157;SDS011;2598;52.364;9.772;2024-02-14T13:08:05;6.60;;;3.13;;
5157;SDS011;2598;52.364;9.772;2024-02-14T13:10:31;5.10;;;3.30;;
5157;SDS011;2598;52.364;9.772;2024-02-14T13:12:57;5.40;;;3.10;;
5157;SDS011;2598;52.364;9.772;2024-02-14T13:15:23;6.30;;;3.47;;
5157;SDS011;2598;52.364;9.772;2024-02-14T13:17:50;5.53;;;3.67;;
5157;SDS011;2598;52.364;9.772;2024-02-14T13:20:16;5.20;;;3.13;;
5157;SDS011;2598;52.364;9.772;2024-02-14T13:22:42;5.23;;;3.30;;
5157;SDS011;2598;52.364;9.772;2024-02-14T13:25:09;6.23;;;3.60;;
5157;SDS011;2598;52.364;9.772;2024-02-14T13:27:35;7.10;;;4.27;;
5157;SDS011;2598;52.364;9.772;2024-02-14T13:30:01;4.93;;;3.10;;
5157;SDS011;2598;52.364;9.772;2024-02-14T13:32:27;5.27;;;2.73;;
5157;SDS011;2598;52.364;9.772;2024-02-14T13:34:53;6.23;;;3.60;;
5157;SDS011;2598;52.364;9.772;2024-02-14T13:37:19;5.90;;;3.40;;
5157;SDS011;2598;52.364;9.772;2024-02-14T13:39:46;7.07;;;3.37;;
5157;SDS011;2598;52.364;9.772;2024-02-14T13:42:12;6.23;;;3.90;;
5157;SDS011;2598;52.364;9.772;2024-02-14T13:44:38;6.23;;;3.60;;
5157;SDS011;2598;52.364;9.772;2024-02-14T13:47:04;5.43;;;3.03;;
5157;SDS011;2598;52.364;9.772;2024-02-14T13:49:31;6.30;;;3.70;;
5157;SDS011;2598;52.364;9.772;2024-02-14T13:51:57;5.57;;;3.10;;
5157;SDS011;2598;52.364;9.772;2024-02-14T13:54:23;6.30;;;3.20;;
5157;SDS011;2598;52.364;9.772;2024-02-14T13:56:49;6.37;;;2.80;;
5157;SDS011;2598;52.364;9.772;2024-02-14T13:59:15;4.93;;;2.80;;
5157;SDS011;2598;52.364;9.772;2024-02-14T14:01:42;4.80;;;2.73;;
5157;SDS011;2598;52.364;9.772;2024-02-14T14:04:08;4.90;;;2.40;;
5157;SDS011;2598;52.364;9.772;2024-02-14T14:06:34;4.80;;;2.90;;
5157;SDS011;2598;52.364;9.772;2024-02-14T14:09:00;8.00;;;2.63;;
5157;SDS011;2598;52.364;9.772;2024-02-14T14:11:28;4.57;;;2.40;;
5157;SDS011;2598;52.364;9.772;2024-02-14T14:13:54;4.43;;;2.50;;
5157;SDS011;2598;52.364;9.772;2024-02-14T14:16:20;4.50;;;2.47;;
5157;SDS011;2598;52.364;9.772;2024-02-14T14:18:46;4.47;;;2.30;;
5157;SDS011;2598;52.364;9.772;2024-02-14T14:21:12;3.87;;;1.80;;
5157;SDS011;2598;52.364;9.772;2024-02-14T14:23:38;4.90;;;1.90;;
5157;SDS011;2598;52.364;9.772;2024-02-14T14:26:04;4.97;;;1.77;;
5157;SDS011;2598;52.364;9.772;2024-02-14T14:28:31;3.63;;;1.70;;
5157;SDS011;2598;52.364;9.772;2024-02-14T14:30:57;3.27;;;1.30;;
5157;SDS011;2598;52.364;9.772;2024-02-14T14:33:25;3.90;;;1.27;;
5157;SDS011;2598;52.364;9.772;2024-02-14T14:35:52;4.30;;;1.43;;
5157;SDS011;2598;52.364;9.772;2024-02-14T14:38:18;5.20;;;1.17;;
5157;SDS011;2598;52.364;9.772;2024-02-14T14:40:44;3.20;;;1.10;;
5157;SDS011;2598;52.364;9.772;2024-02-14T14:43:14;3.30;;;1.30;;
5157;SDS011;2598;52.364;9.772;2024-02-14T14:45:44;4.20;;;1.43;;
5157;SDS011;2598;52.364;9.772;2024-02-14T14:48:10;3.30;;;1.00;;
5157;SDS011;2598;52.364;9.772;2024-02-14T14:50:36;3.77;;;1.03;;
5157;SDS011;2598;52.364;9.772;2024-02-14T14:53:02;3.60;;;1.23;;
5157;SDS011;2598;52.364;9.772;2024-02-14T14:58:14;4.50;;;1.10;;
5157;SDS011;2598;52.364;9.772;2024-02-14T15:00:40;3.10;;;0.93;;
5157;SDS011;2598;52.364;9.772;2024-02-14T15:03:07;4.23;;;1.00;;
5157;SDS011;2598;52.364;9.772;2024-02-14T15:05:33;3.23;;;1.10;;
5157;SDS011;2598;52.364;9.772;2024-02-14T15:07:59;3.10;;;1.00;;
5157;SDS011;2598;52.364;9.772;2024-02-14T15:10:25;3.20;;;0.90;;
5157;SDS011;2598;52.364;9.772;2024-02-14T15:12:51;3.10;;;0.70;;
5157;SDS011;2598;52.364;9.772;2024-02-14T15:15:17;3.50;;;1.00;;